Time;durP1;ratioP1;P1;durP2;ratioP2;P2;SDS_P1;SDS_P2;PMS_P1;PMS_P2;Temp;Humidity;BMP_temperature;BMP_pressure;BME280_temperature;BME280_humidity;BME280_pressure;Samples;Min_cycle;Max_cycle;Signal;HPM_P1;HPM_P2
2023/08/05 00:00:02;;;;;;;9.90;5.43;;;15.40;99.90;;;;;;5095547;28;20040;-70
2023/08/05 00:02:28;;;;;;;9.90;5.90;;;15.40;99.90;;;;;;5094050;28;20055;-70
2023/08/05 00:04:53;;;;;;;11.83;5.73;;;15.40;99.90;;;;;;5095444;28;20047;-70
2023/08/05 00:07:19;;;;;;;8.70;6.03;;;15.40;99.90;;;;;;5095142;28;20055;-71
2023/08/05 00:09:45;;;;;;;8.93;5.73;;;15.40;99.90;;;;;;5095247;28;20036;-70
2023/08/05 00:12:11;;;;;;;10.47;6.10;;;15.30;99.90;;;;;;5094998;28;20446;-71
2023/08/05 00:14:37;;;;;;;11.70;5.37;;;15.20;99.90;;;;;;5095397;28;20051;-71
2023/08/05 00:17:03;;;;;;;10.63;6.00;;;15.20;99.90;;;;;;5095302;28;20127;-71
2023/08/05 00:19:28;;;;;;;8.93;5.23;;;15.20;99.90;;;;;;5093794;28;20196;-71
2023/08/05 00:21:54;;;;;;;8.60;5.93;;;15.20;99.90;;;;;;5095120;28;20119;-71
2023/08/05 00:24:20;;;;;;;10.03;6.27;;;15.10;99.90;;;;;;5094752;28;20048;-71
2023/08/05 00:26:45;;;;;;;8.53;5.70;;;15.20;99.90;;;;;;5094968;28;20047;-70
2023/08/05 00:29:11;;;;;;;10.17;5.97;;;15.10;99.90;;;;;;5094575;28;20048;-71
2023/08/05 00:31:36;;;;;;;9.03;5.87;;;15.10;99.90;;;;;;5094896;28;20082;-71
2023/08/05 00:34:02;;;;;;;13.53;8.37;;;15.10;99.90;;;;;;5094446;28;20055;-70
2023/08/05 00:36:28;;;;;;;10.87;7.33;;;15.00;99.90;;;;;;5094589;28;20098;-72
2023/08/05 00:38:53;;;;;;;8.87;6.17;;;15.00;99.90;;;;;;5094738;28;20476;-71
2023/08/05 00:41:19;;;;;;;13.67;6.33;;;14.90;99.90;;;;;;5093554;28;20060;-72
2023/08/05 00:43:45;;;;;;;8.83;5.63;;;15.00;99.90;;;;;;5093507;28;20086;-71
2023/08/05 00:46:12;;;;;;;7.77;6.07;;;14.90;99.90;;;;;;5094363;28;20048;-72
2023/08/05 00:48:38;;;;;;;11.17;5.90;;;14.90;99.90;;;;;;5094562;28;20055;-72
2023/08/05 00:51:06;;;;;;;10.23;6.37;;;14.90;99.90;;;;;;5094475;28;20096;-72
2023/08/05 00:53:34;;;;;;;9.03;5.70;;;14.80;99.90;;;;;;5094423;28;20055;-72
2023/08/05 00:56:00;;;;;;;12.67;6.10;;;14.80;99.90;;;;;;5094473;28;20055;-72
2023/08/05 00:58:27;;;;;;;11.13;6.13;;;14.80;99.90;;;;;;5093959;28;20499;-72
2023/08/05 01:00:53;;;;;;;9.60;5.80;;;14.70;99.90;;;;;;5094341;28;20055;-71
2023/08/05 01:03:19;;;;;;;9.47;5.73;;;14.80;99.90;;;;;;5094113;28;20056;-72
2023/08/05 01:05:47;;;;;;;10.97;5.87;;;14.80;99.90;;;;;;5094272;28;20146;-72
2023/08/05 01:08:13;;;;;;;8.00;5.77;;;14.80;99.90;;;;;;5094048;28;20055;-72
2023/08/05 01:10:39;;;;;;;8.63;5.87;;;14.70;99.90;;;;;;5093141;28;20044;-71
2023/08/05 01:13:04;;;;;;;9.10;5.80;;;14.60;99.90;;;;;;5093126;28;20048;-71
2023/08/05 01:15:30;;;;;;;9.87;6.37;;;14.60;99.90;;;;;;5093456;28;20487;-71
2023/08/05 01:17:57;;;;;;;8.87;6.10;;;14.60;99.90;;;;;;5093681;28;20093;-71
2023/08/05 01:20:32;;;;;;;17.17;6.60;;;14.50;99.90;;;;;;5093687;28;20040;-71
2023/08/05 01:23:07;;;;;;;10.00;5.77;;;14.50;99.90;;;;;;5094075;28;20135;-70
2023/08/05 01:25:34;;;;;;;9.35;5.85;;;14.60;99.90;;;;;;5093694;28;20143;-72
2023/08/05 01:28:02;;;;;;;9.03;6.07;;;14.50;99.90;;;;;;5093999;28;20052;-72
2023/08/05 01:30:29;;;;;;;11.47;5.33;;;14.60;99.90;;;;;;5093438;28;20048;-73
2023/08/05 01:32:59;;;;;;;9.20;5.90;;;14.60;99.90;;;;;;5092672;28;20051;-72
2023/08/05 01:35:25;;;;;;;9.67;5.67;;;14.50;99.90;;;;;;5092984;28;20055;-72
2023/08/05 01:37:50;;;;;;;11.67;6.00;;;14.60;99.90;;;;;;5093668;28;20040;-72
2023/08/05 01:40:16;;;;;;;10.63;5.70;;;14.50;99.90;;;;;;5093239;28;20035;-75
2023/08/05 01:42:42;;;;;;;9.20;5.60;;;14.50;99.90;;;;;;5093566;28;20048;-70
2023/08/05 01:45:08;;;;;;;12.27;6.20;;;14.50;99.90;;;;;;5092574;28;20097;-71
2023/08/05 01:47:34;;;;;;;8.50;6.27;;;14.50;99.90;;;;;;5093244;28;20523;-72
2023/08/05 01:49:59;;;;;;;10.93;6.83;;;14.50;99.90;;;;;;5093371;28;20051;-69
2023/08/05 01:52:25;;;;;;;12.87;6.73;;;14.40;99.90;;;;;;5093157;28;20044;-72
2023/08/05 01:54:51;;;;;;;10.13;6.20;;;14.40;99.90;;;;;;5093447;28;20048;-73
2023/08/05 01:57:16;;;;;;;11.57;6.20;;;14.40;99.90;;;;;;5092108;28;20395;-70
2023/08/05 01:59:42;;;;;;;8.20;5.93;;;14.40;99.90;;;;;;5093232;28;20043;-72
2023/08/05 02:02:08;;;;;;;8.47;5.93;;;14.40;99.90;;;;;;5091932;28;20052;-72
2023/08/05 02:04:34;;;;;;;10.73;7.20;;;14.40;99.90;;;;;;5092284;28;20488;-70
2023/08/05 02:07:05;;;;;;;11.17;6.47;;;14.30;99.90;;;;;;5092476;28;20048;-71
2023/08/05 02:09:30;;;;;;;9.30;6.93;;;14.30;99.90;;;;;;5093203;28;20083;-71
2023/08/05 02:11:57;;;;;;;11.17;6.60;;;14.30;99.90;;;;;;5093417;28;20097;-71
2023/08/05 02:14:23;;;;;;;9.50;6.97;;;14.20;99.90;;;;;;5092649;28;20455;-71
2023/08/05 02:16:48;;;;;;;9.43;7.27;;;14.10;99.90;;;;;;5093458;28;20505;-71
2023/08/05 02:19:14;;;;;;;9.80;6.73;;;14.20;99.90;;;;;;5075244;28;20052;-71
2023/08/05 02:21:40;;;;;;;9.60;6.73;;;14.10;99.90;;;;;;5092938;28;20466;-71
2023/08/05 02:24:09;;;;;;;10.77;6.67;;;14.20;99.90;;;;;;5092008;28;20044;-71
2023/08/05 02:26:38;;;;;;;11.30;7.63;;;14.20;99.90;;;;;;5093016;28;20048;-71
2023/08/05 02:29:03;;;;;;;10.13;6.77;;;14.10;99.90;;;;;;5092941;28;20048;-71
2023/08/05 02:31:29;;;;;;;9.10;6.30;;;14.10;99.90;;;;;;5092862;28;20040;-71
2023/08/05 02:33:55;;;;;;;8.93;6.80;;;14.20;99.90;;;;;;5092189;28;20044;-71
2023/08/05 02:36:21;;;;;;;9.20;6.90;;;14.20;99.90;;;;;;5093064;28;20420;-71
2023/08/05 02:38:47;;;;;;;10.53;6.70;;;14.10;99.90;;;;;;5093063;28;20044;-71
2023/08/05 02:41:13;;;;;;;10.00;6.73;;;14.10;99.90;;;;;;5092997;28;20317;-70
2023/08/05 02:43:38;;;;;;;9.80;6.47;;;14.10;99.90;;;;;;5092785;28;20051;-70
2023/08/05 02:46:04;;;;;;;12.77;7.47;;;14.20;99.90;;;;;;5093044;28;20467;-70
2023/08/05 02:48:30;;;;;;;12.20;6.60;;;14.20;99.90;;;;;;5096980;28;20048;-70
2023/08/05 02:50:56;;;;;;;12.17;6.60;;;14.20;99.90;;;;;;5096945;28;20075;-70
2023/08/05 02:53:22;;;;;;;9.43;7.30;;;14.20;99.90;;;;;;5095934;28;20396;-70
2023/08/05 02:55:47;;;;;;;10.87;6.87;;;14.30;99.90;;;;;;5096736;28;20040;-70
2023/08/05 02:58:17;;;;;;;10.13;6.77;;;14.30;99.90;;;;;;5097041;28;20180;-70
2023/08/05 03:00:43;;;;;;;15.50;7.20;;;14.30;99.90;;;;;;5078675;28;20049;-70
2023/08/05 03:03:15;;;;;;;10.43;6.77;;;14.30;99.90;;;;;;5095897;28;20463;-71
2023/08/05 03:05:41;;;;;;;14.33;7.27;;;14.30;99.90;;;;;;5095244;28;20280;-70
2023/08/05 03:08:07;;;;;;;9.40;6.90;;;14.40;99.90;;;;;;5096631;28;20051;-70
2023/08/05 03:10:33;;;;;;;10.00;6.53;;;14.40;99.90;;;;;;5096383;28;20036;-71
2023/08/05 03:12:59;;;;;;;10.50;6.93;;;14.40;99.90;;;;;;5096317;28;20428;-70
2023/08/05 03:15:28;;;;;;;9.33;6.40;;;14.50;99.90;;;;;;5096573;28;20044;-71
2023/08/05 03:17:54;;;;;;;9.23;6.37;;;14.50;99.90;;;;;;5096464;28;20055;-70
2023/08/05 03:20:31;;;;;;;14.73;6.87;;;14.60;99.90;;;;;;5096441;28;20115;-70
2023/08/05 03:22:57;;;;;;;9.33;6.90;;;14.60;99.90;;;;;;5096664;28;20048;-70
2023/08/05 03:25:25;;;;;;;11.57;6.60;;;14.60;99.90;;;;;;5096226;28;20286;-70
2023/08/05 03:27:51;;;;;;;10.33;6.37;;;14.60;99.90;;;;;;5096076;28;20395;-70
2023/08/05 03:30:18;;;;;;;9.67;6.63;;;14.60;99.90;;;;;;5096327;28;20044;-70
2023/08/05 03:32:46;;;;;;;12.50;7.13;;;14.60;99.90;;;;;;5095986;28;20054;-70
2023/08/05 03:35:12;;;;;;;13.13;6.97;;;14.60;99.90;;;;;;5096151;28;20126;-70
2023/08/05 03:37:38;;;;;;;10.70;6.40;;;14.60;99.90;;;;;;5078016;28;20087;-70
2023/08/05 03:40:04;;;;;;;13.63;7.47;;;14.60;99.90;;;;;;5096116;28;20484;-70
2023/08/05 03:42:30;;;;;;;9.73;6.50;;;14.60;99.90;;;;;;5096139;28;20047;-71
2023/08/05 03:44:56;;;;;;;10.37;6.87;;;14.60;99.90;;;;;;5095066;28;20040;-70
2023/08/05 03:47:22;;;;;;;10.83;6.67;;;14.60;99.90;;;;;;5096070;28;20044;-70
2023/08/05 03:49:48;;;;;;;12.60;6.67;;;14.60;99.90;;;;;;5094358;28;20098;-70
2023/08/05 03:52:14;;;;;;;9.97;6.27;;;14.50;99.90;;;;;;5095805;28;20054;-70
2023/08/05 03:54:40;;;;;;;11.97;6.63;;;14.60;99.90;;;;;;5095524;28;20051;-70
2023/08/05 03:57:09;;;;;;;11.87;5.57;;;14.60;99.90;;;;;;5095273;28;20392;-70
2023/08/05 03:59:35;;;;;;;9.87;5.40;;;14.50;99.90;;;;;;5095259;28;20560;-70
2023/08/05 04:02:01;;;;;;;10.27;5.20;;;14.50;99.90;;;;;;5095621;28;20396;-70
2023/08/05 04:04:27;;;;;;;9.40;5.50;;;14.50;99.90;;;;;;5095603;28;20043;-70
2023/08/05 04:06:53;;;;;;;7.47;5.20;;;14.60;99.90;;;;;;5095373;28;20069;-70
2023/08/05 04:09:20;;;;;;;10.80;5.30;;;14.60;99.90;;;;;;5094413;28;20127;-70
2023/08/05 04:11:48;;;;;;;8.83;4.63;;;14.60;99.90;;;;;;5095321;28;20056;-71
2023/08/05 04:14:17;;;;;;;8.07;4.97;;;14.60;99.90;;;;;;5095205;28;20515;-70
2023/08/05 04:16:43;;;;;;;9.43;4.83;;;14.60;99.90;;;;;;5095151;28;20285;-70
2023/08/05 04:19:08;;;;;;;10.00;4.43;;;14.60;99.90;;;;;;5095392;28;20040;-70
2023/08/05 04:21:40;;;;;;;13.37;5.03;;;14.70;99.90;;;;;;5095144;28;20097;-71
2023/08/05 04:24:09;;;;;;;7.53;4.60;;;14.70;99.90;;;;;;5095356;28;20044;-70
2023/08/05 04:26:35;;;;;;;7.63;4.00;;;14.70;99.90;;;;;;5095006;28;20051;-71
2023/08/05 04:29:02;;;;;;;9.33;4.13;;;14.80;99.90;;;;;;5095090;28;20525;-70
2023/08/05 04:31:28;;;;;;;7.30;4.40;;;14.80;99.90;;;;;;5094754;28;20052;-70
2023/08/05 04:33:54;;;;;;;8.77;4.30;;;14.90;99.90;;;;;;5094879;28;20058;-70
2023/08/05 04:36:20;;;;;;;10.10;4.07;;;14.90;99.90;;;;;;5093811;28;20043;-70
2023/08/05 04:38:45;;;;;;;8.83;4.70;;;14.90;99.90;;;;;;5094719;28;20138;-70
2023/08/05 04:41:11;;;;;;;8.87;3.93;;;15.00;99.90;;;;;;5094962;28;20424;-70
2023/08/05 04:43:37;;;;;;;6.37;3.40;;;15.00;99.90;;;;;;5076863;28;20357;-71
2023/08/05 04:46:02;;;;;;;9.37;4.30;;;15.00;99.90;;;;;;5094721;28;20052;-70
2023/08/05 04:48:28;;;;;;;9.50;3.70;;;15.10;99.90;;;;;;5093557;28;20044;-70
2023/08/05 04:50:55;;;;;;;9.17;4.23;;;15.10;99.90;;;;;;5094394;28;20357;-70
2023/08/05 04:53:21;;;;;;;11.10;4.37;;;15.10;99.90;;;;;;5093433;28;20089;-70
2023/08/05 04:55:47;;;;;;;8.13;3.47;;;15.20;99.90;;;;;;5094401;28;20047;-70
2023/08/05 04:58:12;;;;;;;8.97;3.83;;;15.20;99.90;;;;;;5093516;28;20088;-70
2023/08/05 05:00:38;;;;;;;7.40;3.50;;;15.30;99.90;;;;;;5094292;28;20040;-71
2023/08/05 05:03:06;;;;;;;8.27;4.17;;;15.40;99.90;;;;;;5094275;28;20097;-70
2023/08/05 05:05:33;;;;;;;10.93;4.27;;;15.50;99.90;;;;;;5094055;28;20480;-70
2023/08/05 05:07:59;;;;;;;7.07;4.50;;;15.50;99.90;;;;;;5094139;28;20052;-71
2023/08/05 05:10:25;;;;;;;8.10;3.60;;;15.60;99.90;;;;;;5092180;28;20054;-71
2023/08/05 05:12:51;;;;;;;9.13;4.03;;;15.60;99.90;;;;;;5093108;28;20127;-71
2023/08/05 05:15:19;;;;;;;10.47;3.70;;;15.70;99.90;;;;;;5094383;28;20064;-70
2023/08/05 05:17:45;;;;;;;7.47;3.80;;;15.70;99.90;;;;;;5093918;28;20492;-70
2023/08/05 05:20:11;;;;;;;6.87;3.80;;;15.70;99.90;;;;;;5094095;28;20044;-71
2023/08/05 05:22:37;;;;;;;7.00;4.27;;;15.70;99.90;;;;;;5094130;28;20051;-70
2023/08/05 05:25:03;;;;;;;7.13;3.90;;;15.70;99.90;;;;;;5093492;28;20488;-70
2023/08/05 05:27:28;;;;;;;7.63;4.90;;;15.80;99.90;;;;;;5092986;28;20059;-70
2023/08/05 05:29:54;;;;;;;9.00;4.13;;;15.80;99.90;;;;;;5093714;28;20040;-70
2023/08/05 05:32:20;;;;;;;9.07;3.97;;;15.80;99.90;;;;;;5093923;28;20047;-70
2023/08/05 05:34:46;;;;;;;8.37;3.73;;;15.80;99.90;;;;;;5093669;28;20039;-70
2023/08/05 05:37:11;;;;;;;6.67;3.53;;;15.80;99.90;;;;;;5093398;28;20135;-70
2023/08/05 05:39:37;;;;;;;7.07;3.90;;;15.90;99.90;;;;;;5093823;28;20043;-70
2023/08/05 05:42:03;;;;;;;9.77;4.00;;;16.00;99.90;;;;;;5093560;28;20043;-70
2023/08/05 05:44:29;;;;;;;7.07;3.60;;;16.00;99.90;;;;;;5092963;28;20078;-71
2023/08/05 05:46:55;;;;;;;6.33;3.90;;;16.10;99.90;;;;;;5093454;28;20039;-71
2023/08/05 05:49:21;;;;;;;8.50;3.97;;;16.20;99.90;;;;;;5093496;28;20047;-70
2023/08/05 05:51:47;;;;;;;6.57;3.33;;;16.40;99.90;;;;;;5093377;28;20145;-71
2023/08/05 05:54:13;;;;;;;6.90;3.37;;;16.50;99.90;;;;;;5093649;28;20480;-70
2023/08/05 05:56:39;;;;;;;5.90;3.87;;;16.70;99.90;;;;;;5093497;28;20062;-71
2023/08/05 05:59:05;;;;;;;7.03;3.60;;;16.80;99.90;;;;;;5093002;28;20067;-71
2023/08/05 06:01:31;;;;;;;5.50;3.13;;;16.90;99.90;;;;;;5093478;28;20058;-71
2023/08/05 06:03:57;;;;;;;6.90;3.27;;;16.80;99.90;;;;;;5093188;28;20055;-71
2023/08/05 06:06:22;;;;;;;5.90;3.40;;;16.90;99.90;;;;;;5092393;28;20060;-71
2023/08/05 06:08:48;;;;;;;5.70;3.30;;;16.90;99.90;;;;;;5093279;28;20122;-71
2023/08/05 06:11:14;;;;;;;8.47;3.30;;;16.90;99.90;;;;;;5093258;28;20036;-71
2023/08/05 06:13:39;;;;;;;7.07;3.03;;;16.80;99.90;;;;;;5093031;28;20067;-71
2023/08/05 06:16:05;;;;;;;6.67;3.37;;;16.80;99.90;;;;;;5093042;28;20113;-71
2023/08/05 06:18:31;;;;;;;7.07;2.87;;;16.90;99.90;;;;;;5093452;28;20051;-71
2023/08/05 06:20:57;;;;;;;7.80;3.00;;;17.10;99.90;;;;;;5092913;28;20123;-71
2023/08/05 06:23:22;;;;;;;6.47;2.63;;;17.30;99.90;;;;;;5092244;28;20044;-71
2023/08/05 06:25:48;;;;;;;8.13;2.80;;;17.50;99.90;;;;;;5093113;28;20040;-71
2023/08/05 06:28:14;;;;;;;5.20;2.57;;;17.60;99.90;;;;;;5093438;28;20050;-71
2023/08/05 06:30:44;;;;;;;7.30;3.03;;;17.60;99.90;;;;;;5093177;28;20044;-71
2023/08/05 06:33:10;;;;;;;5.33;2.53;;;17.60;99.90;;;;;;5091669;28;20056;-71
2023/08/05 06:35:36;;;;;;;7.03;2.87;;;17.60;99.90;;;;;;5093074;28;20097;-71
2023/08/05 06:38:02;;;;;;;4.03;2.17;;;17.60;99.90;;;;;;5092856;28;20087;-71
2023/08/05 06:40:27;;;;;;;6.80;3.57;;;17.50;99.90;;;;;;5091879;28;20076;-71
2023/08/05 06:42:53;;;;;;;6.57;2.40;;;17.50;99.90;;;;;;5092838;28;20596;-71
2023/08/05 06:45:19;;;;;;;6.93;2.90;;;17.50;99.90;;;;;;5092987;28;20127;-71
2023/08/05 06:47:45;;;;;;;6.70;2.57;;;17.50;99.90;;;;;;5093148;28;20178;-71
2023/08/05 06:50:10;;;;;;;4.83;2.60;;;17.50;99.90;;;;;;5092383;28;20040;-71
2023/08/05 06:52:36;;;;;;;6.40;2.73;;;17.50;99.90;;;;;;5091989;28;20044;-71
2023/08/05 06:55:03;;;;;;;7.77;2.37;;;17.50;99.90;;;;;;5092709;28;20044;-71
2023/08/05 06:57:32;;;;;;;4.43;2.37;;;17.60;99.90;;;;;;5091895;28;20048;-71
2023/08/05 06:59:58;;;;;;;6.03;2.43;;;17.50;99.90;;;;;;5092625;28;20047;-71
2023/08/05 07:02:27;;;;;;;6.07;2.67;;;17.50;99.90;;;;;;5092820;28;20048;-71
2023/08/05 07:04:53;;;;;;;6.10;2.80;;;17.50;99.90;;;;;;5092645;28;20065;-71
2023/08/05 07:07:19;;;;;;;5.70;2.67;;;17.40;99.90;;;;;;5092811;28;20048;-71
2023/08/05 07:09:45;;;;;;;7.53;2.53;;;17.40;99.90;;;;;;5092691;28;20047;-71
2023/08/05 07:12:11;;;;;;;5.57;2.40;;;17.30;99.90;;;;;;5092629;28;20056;-71
2023/08/05 07:14:36;;;;;;;9.20;2.40;;;17.30;99.90;;;;;;5092927;28;20048;-71
2023/08/05 07:17:02;;;;;;;6.40;2.80;;;17.40;99.90;;;;;;5092446;28;20127;-71
2023/08/05 07:19:28;;;;;;;7.33;2.60;;;17.60;99.90;;;;;;5092790;28;20117;-71
2023/08/05 07:21:54;;;;;;;5.13;2.23;;;17.80;99.90;;;;;;5092624;28;20381;-71
2023/08/05 07:24:20;;;;;;;5.97;2.70;;;18.00;99.90;;;;;;5092581;28;20155;-71
2023/08/05 07:26:45;;;;;;;4.83;2.40;;;18.20;99.90;;;;;;5091700;28;20065;-71
2023/08/05 07:29:11;;;;;;;6.60;2.50;;;18.60;99.90;;;;;;5092427;28;20044;-71
2023/08/05 07:31:37;;;;;;;5.37;2.30;;;19.30;99.90;;;;;;5092486;28;20396;-71
2023/08/05 07:34:04;;;;;;;4.73;2.40;;;19.80;99.90;;;;;;5095320;28;20051;-70
2023/08/05 07:36:31;;;;;;;7.03;2.40;;;20.00;99.90;;;;;;5096111;28;20054;-71
2023/08/05 07:38:58;;;;;;;5.90;2.53;;;20.20;99.90;;;;;;5094691;28;20040;-71
2023/08/05 07:41:26;;;;;;;6.20;2.40;;;20.30;99.90;;;;;;5095043;28;20052;-71
2023/08/05 07:43:57;;;;;;;5.83;2.33;;;20.30;99.90;;;;;;5096011;28;20531;-71
2023/08/05 07:46:25;;;;;;;5.83;2.57;;;20.10;99.90;;;;;;5095325;28;20140;-71
2023/08/05 07:48:52;;;;;;;8.27;2.70;;;20.00;99.90;;;;;;5094700;28;20434;-71
2023/08/05 07:51:19;;;;;;;5.70;2.57;;;19.90;99.90;;;;;;5095649;28;20051;-71
2023/08/05 07:53:47;;;;;;;5.27;2.40;;;20.00;99.90;;;;;;5095822;28;20040;-71
2023/08/05 07:56:15;;;;;;;6.40;2.50;;;19.90;99.90;;;;;;5095562;28;20048;-71
2023/08/05 07:58:44;;;;;;;5.97;2.60;;;19.90;99.90;;;;;;5095768;28;20044;-71
2023/08/05 08:01:12;;;;;;;6.13;2.53;;;19.70;99.90;;;;;;5095541;28;20048;-71
2023/08/05 08:03:38;;;;;;;5.03;2.50;;;19.70;99.90;;;;;;5095737;28;20055;-71
2023/08/05 08:06:04;;;;;;;6.87;2.73;;;19.50;99.90;;;;;;5095479;28;20399;-71
2023/08/05 08:08:29;;;;;;;4.93;2.40;;;19.40;99.90;;;;;;5095582;28;20098;-70
2023/08/05 08:10:55;;;;;;;5.43;3.07;;;19.20;99.90;;;;;;5077421;28;20396;-70
2023/08/05 08:13:21;;;;;;;6.57;2.43;;;19.00;99.90;;;;;;5095000;28;20139;-70
2023/08/05 08:15:47;;;;;;;4.50;2.33;;;19.00;99.90;;;;;;5094454;28;20048;-70
2023/08/05 08:18:12;;;;;;;5.90;2.60;;;19.00;99.90;;;;;;5095210;28;20048;-70
2023/08/05 08:20:38;;;;;;;4.50;2.10;;;19.00;99.90;;;;;;5094110;28;20061;-70
2023/08/05 08:23:04;;;;;;;6.17;2.57;;;19.00;99.90;;;;;;5095058;28;20495;-70
2023/08/05 08:25:29;;;;;;;5.33;2.90;;;19.20;99.90;;;;;;5095127;28;20373;-70
2023/08/05 08:27:55;;;;;;;5.97;2.30;;;19.50;99.90;;;;;;5077457;28;20043;-70
2023/08/05 08:30:21;;;;;;;6.17;2.63;;;19.60;99.90;;;;;;5094829;28;20477;-70
2023/08/05 08:32:46;;;;;;;7.50;2.63;;;19.90;99.90;;;;;;5094095;28;20067;-70
2023/08/05 08:35:12;;;;;;;7.83;2.77;;;20.30;99.90;;;;;;5094785;28;20051;-70
2023/08/05 08:37:38;;;;;;;6.00;2.60;;;20.50;99.90;;;;;;5093848;28;20047;-70
2023/08/05 08:40:04;;;;;;;5.30;2.40;;;20.60;99.90;;;;;;5093776;28;20429;-71
2023/08/05 08:42:31;;;;;;;5.77;2.40;;;20.40;99.90;;;;;;5094807;28;20125;-70
2023/08/05 08:45:00;;;;;;;5.07;2.43;;;20.30;99.90;;;;;;5092488;28;20395;-71
2023/08/05 08:47:26;;;;;;;5.37;2.50;;;20.20;99.90;;;;;;5094620;28;20094;-71
2023/08/05 08:49:53;;;;;;;8.10;2.67;;;20.10;99.90;;;;;;5094573;28;20050;-71
2023/08/05 08:52:20;;;;;;;8.63;2.77;;;20.00;99.90;;;;;;5094510;28;20091;-71
2023/08/05 08:54:50;;;;;;;6.30;2.27;;;20.10;99.90;;;;;;5094628;28;20102;-70
2023/08/05 08:57:16;;;;;;;4.87;2.10;;;20.20;99.90;;;;;;5093437;28;20458;-70
2023/08/05 08:59:42;;;;;;;7.50;2.43;;;20.30;99.90;;;;;;5094536;28;20068;-70
2023/08/05 09:02:15;;;;;;;6.53;2.47;;;20.40;99.90;;;;;;5094241;28;20415;-70
2023/08/05 09:04:43;;;;;;;5.50;2.77;;;20.40;99.90;;;;;;5094584;28;20130;-70
2023/08/05 09:07:09;;;;;;;7.07;2.80;;;20.50;99.90;;;;;;5094256;28;20051;-71
2023/08/05 09:09:35;;;;;;;4.47;2.40;;;20.60;99.90;;;;;;5094235;28;20047;-71
2023/08/05 09:12:02;;;;;;;4.60;2.20;;;20.60;99.90;;;;;;5094222;28;20051;-70
2023/08/05 09:14:28;;;;;;;5.77;2.53;;;20.60;99.90;;;;;;5092703;28;20048;-71
2023/08/05 09:16:59;;;;;;;4.87;2.20;;;20.40;99.90;;;;;;5093292;28;20469;-71
2023/08/05 09:19:28;;;;;;;4.83;2.10;;;20.50;99.90;;;;;;5093947;28;20105;-71
2023/08/05 09:21:55;;;;;;;6.13;2.57;;;20.60;99.90;;;;;;5094147;28;20059;-70
2023/08/05 09:24:25;;;;;;;6.17;2.40;;;20.70;99.90;;;;;;5092896;28;20059;-71
2023/08/05 09:27:00;;;;;;;4.33;2.20;;;20.70;99.90;;;;;;5092687;28;20044;-71
2023/08/05 09:29:27;;;;;;;5.77;2.07;;;20.70;99.90;;;;;;5092769;28;20055;-71
2023/08/05 09:32:00;;;;;;;4.70;2.17;;;20.70;99.90;;;;;;5093970;28;20087;-71
2023/08/05 09:34:37;;;;;;;4.37;2.10;;;20.80;99.90;;;;;;5093689;28;20063;-71
2023/08/05 09:37:05;;;;;;;5.37;2.10;;;21.00;99.90;;;;;;5093928;28;20461;-71
2023/08/05 09:39:45;;;;;;;4.53;2.27;;;21.10;99.90;;;;;;5092603;28;20160;-70
2023/08/05 09:42:24;;;;;;;6.10;2.30;;;21.20;99.90;;;;;;5093587;28;20052;-70
2023/08/05 09:44:55;;;;;;;4.83;2.47;;;21.30;99.90;;;;;;5094008;28;20058;-71
2023/08/05 09:47:25;;;;;;;4.43;2.67;;;21.30;99.90;;;;;;5092387;28;20468;-71
2023/08/05 09:49:52;;;;;;;5.70;2.67;;;21.30;99.90;;;;;;5093576;28;20036;-70
2023/08/05 09:52:23;;;;;;;7.57;2.60;;;21.30;99.90;;;;;;5092477;28;20048;-71
2023/08/05 09:55:05;;;;;;;5.00;2.30;;;21.30;99.90;;;;;;5093838;28;20077;-70
2023/08/05 09:57:31;;;;;;;7.40;2.47;;;21.30;99.90;;;;;;5093404;28;20039;-71
2023/08/05 09:59:58;;;;;;;3.60;2.00;;;21.20;99.90;;;;;;5093532;28;20036;-70
2023/08/05 10:02:25;;;;;;;6.73;2.20;;;21.20;99.90;;;;;;5093298;28;20047;-70
2023/08/05 10:04:54;;;;;;;5.57;2.30;;;21.20;99.90;;;;;;5093572;28;20169;-71
2023/08/05 10:07:25;;;;;;;6.00;2.80;;;21.20;99.90;;;;;;5093190;28;20141;-72
2023/08/05 10:09:52;;;;;;;5.33;2.30;;;21.20;99.90;;;;;;5093317;28;20040;-71
2023/08/05 10:12:25;;;;;;;4.90;2.17;;;21.30;99.90;;;;;;5093105;28;20052;-71
2023/08/05 10:14:54;;;;;;;5.60;2.30;;;21.40;99.90;;;;;;5092909;28;20190;-71
2023/08/05 10:17:21;;;;;;;6.10;2.67;;;21.50;99.90;;;;;;5093117;28;20067;-71
2023/08/05 10:19:50;;;;;;;5.40;2.60;;;21.50;99.90;;;;;;5093425;28;20048;-71
2023/08/05 10:22:21;;;;;;;3.87;1.93;;;21.60;99.90;;;;;;5092975;28;20495;-71
2023/08/05 10:24:57;;;;;;;6.40;2.37;;;21.50;99.90;;;;;;5092054;28;20052;-71
2023/08/05 10:27:44;;;;;;;4.80;1.83;;;21.40;99.90;;;;;;5093037;28;20098;-71
2023/08/05 10:30:10;;;;;;;4.80;2.03;;;21.40;99.90;;;;;;5092726;28;20404;-71
2023/08/05 10:32:58;;;;;;;4.63;2.33;;;21.50;99.90;;;;;;5092964;28;20079;-71
2023/08/05 10:35:29;;;;;;;4.73;2.20;;;21.50;99.90;;;;;;5092938;28;20048;-71
2023/08/05 10:38:09;;;;;;;5.20;2.13;;;21.60;99.90;;;;;;5091965;28;20093;-71
2023/08/05 10:40:45;;;;;;;5.67;2.20;;;21.60;99.90;;;;;;5092841;28;20133;-70
2023/08/05 10:43:24;;;;;;;5.87;2.40;;;21.60;99.90;;;;;;5093009;28;20044;-71
2023/08/05 10:45:50;;;;;;;5.97;2.10;;;21.40;99.90;;;;;;5093053;28;20052;-71
2023/08/05 10:48:16;;;;;;;6.27;2.43;;;21.40;99.90;;;;;;5091551;28;20040;-72
2023/08/05 10:50:42;;;;;;;6.13;2.10;;;21.40;99.90;;;;;;5091929;28;20090;-72
2023/08/05 10:53:10;;;;;;;6.03;2.13;;;21.40;99.90;;;;;;5092944;28;20048;-72
2023/08/05 10:55:48;;;;;;;5.47;2.03;;;21.40;99.90;;;;;;5092670;28;20059;-72
2023/08/05 10:58:28;;;;;;;6.87;2.10;;;21.50;99.90;;;;;;5092851;28;20044;-72
2023/08/05 11:01:04;;;;;;;5.03;2.33;;;21.50;99.90;;;;;;5093156;28;20051;-72
2023/08/05 11:03:41;;;;;;;5.83;2.73;;;21.50;99.90;;;;;;5092665;28;20046;-72
2023/08/05 11:06:08;;;;;;;4.57;2.37;;;21.40;99.90;;;;;;5092765;28;20494;-72
2023/08/05 11:08:36;;;;;;;7.40;2.73;;;21.40;99.90;;;;;;5095046;28;20054;-72
2023/08/05 11:11:15;;;;;;;5.70;2.60;;;21.30;99.90;;;;;;5095471;28;20122;-72
2023/08/05 11:13:45;;;;;;;6.70;2.77;;;21.10;99.90;;;;;;5096324;28;20051;-72
2023/08/05 11:16:13;;;;;;;5.13;2.17;;;21.00;99.90;;;;;;5096705;28;20138;-72
2023/08/05 11:18:40;;;;;;;4.93;2.53;;;21.00;99.90;;;;;;5096264;28;20058;-72
2023/08/05 11:21:09;;;;;;;6.93;2.67;;;21.20;99.90;;;;;;5095317;28;20369;-72
2023/08/05 11:23:39;;;;;;;5.30;2.20;;;21.20;99.90;;;;;;5096160;28;20048;-72
2023/08/05 11:26:06;;;;;;;8.40;2.87;;;21.40;99.90;;;;;;5096391;28;20048;-72
2023/08/05 11:28:32;;;;;;;6.77;2.70;;;21.40;99.90;;;;;;5094949;28;20050;-72
2023/08/05 11:31:00;;;;;;;5.10;2.40;;;21.20;99.90;;;;;;5095008;28;20044;-72
2023/08/05 11:33:27;;;;;;;6.53;2.47;;;21.10;99.90;;;;;;5096089;28;20040;-72
2023/08/05 11:35:53;;;;;;;6.43;2.57;;;21.10;99.90;;;;;;5096153;28;20055;-72
2023/08/05 11:38:23;;;;;;;6.03;2.37;;;21.10;99.90;;;;;;5096100;28;20139;-72
2023/08/05 11:40:53;;;;;;;5.40;2.67;;;21.10;99.90;;;;;;5096096;28;20109;-72
2023/08/05 11:43:20;;;;;;;6.47;2.67;;;21.00;99.90;;;;;;5096071;28;20047;-72
2023/08/05 11:45:47;;;;;;;7.30;2.30;;;20.90;99.90;;;;;;5095858;28;20040;-72
2023/08/05 11:48:20;;;;;;;4.33;2.33;;;20.80;99.90;;;;;;5095701;28;20560;-72
2023/08/05 11:50:47;;;;;;;5.23;2.53;;;20.80;99.90;;;;;;5095694;28;20047;-72
2023/08/05 11:53:13;;;;;;;6.33;2.93;;;20.90;99.90;;;;;;5095861;28;20044;-72
2023/08/05 11:55:40;;;;;;;7.53;3.13;;;20.90;99.90;;;;;;5094359;28;20079;-71
2023/08/05 11:58:06;;;;;;;5.00;2.97;;;20.80;99.90;;;;;;5094888;28;20441;-72
2023/08/05 12:00:33;;;;;;;5.80;2.90;;;20.70;99.90;;;;;;5095335;28;20395;-72
2023/08/05 12:03:02;;;;;;;4.87;2.50;;;20.60;99.90;;;;;;5095714;28;20040;-72
2023/08/05 12:05:28;;;;;;;5.90;3.13;;;20.60;99.90;;;;;;5095430;28;20066;-72
2023/08/05 12:07:54;;;;;;;8.20;3.27;;;20.60;99.90;;;;;;5094522;28;20044;-72
2023/08/05 12:10:20;;;;;;;5.53;3.20;;;20.60;99.90;;;;;;5095189;28;20055;-72
2023/08/05 12:12:48;;;;;;;6.03;3.50;;;20.60;99.90;;;;;;5093783;28;20524;-72
2023/08/05 12:15:16;;;;;;;8.60;3.40;;;20.60;99.90;;;;;;5095751;28;20139;-72
2023/08/05 12:17:49;;;;;;;8.03;3.63;;;20.50;99.90;;;;;;5095244;28;20471;-72
2023/08/05 12:20:36;;;;;;;9.03;3.30;;;20.60;99.90;;;;;;5095232;28;20048;-72
2023/08/05 12:23:05;;;;;;;7.27;3.33;;;20.60;99.90;;;;;;5095632;28;20096;-72
2023/08/05 12:25:31;;;;;;;6.27;3.47;;;20.50;99.90;;;;;;5094217;28;20097;-72
2023/08/05 12:27:58;;;;;;;8.03;3.80;;;20.50;99.90;;;;;;5095167;28;20553;-72
2023/08/05 12:30:24;;;;;;;6.30;3.50;;;20.40;99.90;;;;;;5095214;28;20075;-72
2023/08/05 12:32:51;;;;;;;7.53;3.50;;;20.40;99.90;;;;;;5094884;28;20499;-72
2023/08/05 12:35:17;;;;;;;6.77;3.87;;;20.30;99.90;;;;;;5095084;28;20051;-71
2023/08/05 12:37:43;;;;;;;8.30;3.47;;;20.20;99.90;;;;;;5094828;28;20047;-71
2023/08/05 12:40:10;;;;;;;7.43;3.80;;;20.10;99.90;;;;;;5093769;28;20403;-72
2023/08/05 12:42:36;;;;;;;6.37;3.50;;;20.10;99.90;;;;;;5094706;28;20048;-71
2023/08/05 12:45:03;;;;;;;6.53;3.67;;;19.90;99.90;;;;;;5094849;28;20048;-72